الصفحة الرئيسية
METAR-TAF:

METAR-TAF

مطار :

سيوداد خواريز, المكسيك

دائرة عرض: 31-38N, خط طول: 106-26W, ارتفاع: 1171 متر

مراقبة الطقس الحالي

تاريخ ووقت الإصدار 1ساعة و 5 دقيقة قبل الساعة 18:41UTC
ريح 6 عقدة من الجنوب
درجة الحرارة 23°درجة مئوية
الرطوبة 25%
ضغط 1017 hPa
الرؤية: 16.1 كم
سماء صافية

METAR: MMCS 191841Z 17006KT 10SM SKC 23/02 A3002

زمن: 13:46 (19:46 UTC)

توقعات

تاريخ ووقت الإصدار 3ساعات و 26 دقيقة قبل الساعة 16:20UTC
التوقعات صالحة من19 الساعة 18 UTC إلى 20 الساعة 18 UTC
ريح 10 عقدة من الجنوب الغربي
الرؤية: 10 كم
سماء صافية
من 20 الساعة 0400 UTC
ريح 6 عقدة من الجنوب/الجنوب الغربي
الرؤية: 10 كم
سماء صافية
من 20 الساعة 1600 UTC
ريح 10 عقدة من الغرب/الجنوب الغربي
الرؤية: 10 كم
سماء صافية

TAF: MMCS 191620Z 1918/2018 23010KT P6SM SKC FM200400 20006KT P6SM SKC FM201600 25010KT P6SM SKC

أرصاد الطقس والتوقعات من أكثر من 4000 مطار (تقارير الطقس للمطار METAR والتنبؤ بالطقس بالمطارTAF).

المحطات المتاحة هي النقط الصفراء والحمراء على الخريطة.

حرك المؤشر فوق النقطة لمعرفة اسم المحطة.

ثم انقر لمعرفة أرصاد وتوقعات الطقس.

لتغيير الخارطة: اضغط على الأزرار الخضراء مع رمز الصليب الأسود للتكبير. على الزر الأخضر مع شرطة للتصغير، أو على الأسهم الخضراء للخرائط المجاورة.


METAR-TAF: